Airfield :
LOGIN :

Register | Disclaimer

   EN    FR    IT 

 










Legend :    VFR   Marginal VFR   IFR   Intensive IFR   Very Intensive IFR
Visi :
Ceiling :
>= 8 km
>= 3000ft
5 to 8 km
1000 to 3000 ft
1500m to 5 km
500 to 1000 ft
800 to 1500m
200 to 500 ft
< 800m
< 200 ft
Symbols :   Thunderstorms  Fog  Heavy snow  Heavy precipitations  Wind > 20 kt
SIGMETs :     Misc.  Thunderstorms  Icing  Turbulence  Mountain Waves  Volcanic Ashes







- Airport Elevation : 18 ft
- IATA code : AJA
- Download approach charts


LFKJ - Ajaccio

CURRENT METAR :
  • 181730Z AUTO VRB03KT 5000 BR NSC 20/15 Q1011 NOSIG

EXPIRED METARs :
  • 181700Z AUTO VRB02KT CAVOK 21/17 Q1010 NOSIG
  • 181630Z AUTO 20004KT 180V240 CAVOK 22/18 Q1010 NOSIG
  • 181600Z AUTO 21006KT CAVOK 24/19 Q1010 NOSIG
  • 181530Z AUTO 19006KT 160V220 CAVOK 25/18 Q1009 NOSIG
  • 181500Z AUTO 24004KT 210V280 9999 FEW068 26/18 Q1009 NOSIG
  • 181430Z AUTO 26007KT CAVOK 26/17 Q1009 NOSIG

TAF TAF LFKJ
Valid from the 18 at 15:00 until the 19 at 15:00 UTC


181400Z 1815/1915 25010KT 9999 FEW040 SCT260
BECMG 1816/1818 05004KT CAVOK
BECMG 1908/1910 24010KT
ATIS : +33 4 95 23 59 85
No reported NOTAMs for that airfield.



MET'MAP, your aeronautical weather chart ! - Copyright ORBIFLY December 2007 - Disclaimer

ORBIFLY MET'MAP TEAM :

Programming & Development : Alexandra Zaïnal
Concept & Development : Baudouin d'Aumeries
Co-Development & Prog : Marc-Olivier Méhu
Technical & hardware support : Manuel Goepfert

Contact : metmap@orbifly.com




SOURCES & CREDITS :

   NOAA